Justice — WDG2184 — position and weather

sailwx.info

Track history (hours):
 
Tides and Currents Weather Stations Pressure Air Temp Water Temp Dewpoint Dewpoint Depression Visibility Wind Speed Wind Dir Waves Ship Positions

Justice

Owner: Boston Towing & Transportation, Boston, MA. More information available from US FCC via Universal Licensing System and Coast Guard Vessel Documentation Center.

Last reported at 2017-Mar-27 21:33 UTC. Time now 2017-Mar-27 22:22 UTC.
Position N 42°23' W 071°03'.

Length 30 m; draft 5.8 m.

Type: Tug. MMSI: 367513010.

Date/timePositionNaut miles runAvg speedWind from/ knotsBaromVisibWave heightAir tempDewpointWater temp
2017-Mar-27 21:33N 42°23' W 071°03'0 0.0
2017-Mar-27 20:33N 42°23' W 071°03'0 0.0
2017-Mar-27 19:33N 42°23' W 071°03'0 0.0
2017-Mar-27 18:33N 42°23' W 071°03'0 0.0
2017-Mar-27 17:33N 42°23' W 071°03'0 0.0
2017-Mar-27 16:33N 42°23' W 071°03'0 0.0
2017-Mar-27 15:33N 42°23' W 071°03'0 0.0
2017-Mar-27 14:33N 42°23' W 071°03'2 2.5
2017-Mar-27 13:33N 42°21' W 071°01'3 2.7
2017-Mar-27 12:33N 42°23' W 071°02'0 0.0
2017-Mar-27 11:33N 42°23' W 071°02'0 0.4
2017-Mar-27 10:33N 42°23' W 071°03'0 0.0
2017-Mar-27 09:33N 42°23' W 071°03'0 0.0
2017-Mar-27 08:33N 42°23' W 071°03'0 0.0
2017-Mar-27 07:33N 42°23' W 071°03'0 0.0
2017-Mar-27 06:33N 42°23' W 071°03'0 0.0
2017-Mar-27 05:33N 42°23' W 071°03'0 0.0
2017-Mar-27 04:33N 42°23' W 071°03'0 0.0
2017-Mar-27 03:34N 42°23' W 071°03'0 0.0
2017-Mar-27 02:34N 42°23' W 071°03'0 0.1
2017-Mar-27 01:34N 42°23' W 071°03'0 0.1
2017-Mar-27 00:34N 42°23' W 071°03'0 0.0
2017-Mar-26 23:34N 42°23' W 071°03'0 0.0
2017-Mar-26 22:34N 42°23' W 071°03'0 0.0
2017-Mar-26 21:34N 42°23' W 071°03'0 0.0
2017-Mar-26 20:34N 42°23' W 071°03'0 0.0
2017-Mar-26 19:34N 42°23' W 071°03'0 0.0
2017-Mar-26 18:34N 42°23' W 071°03'0 0.0
2017-Mar-26 17:33N 42°23' W 071°03'0 0.0
2017-Mar-26 16:33N 42°23' W 071°03'0 0.0
2017-Mar-26 15:33N 42°23' W 071°03'1 1.3
2017-Mar-26 14:34N 42°22' W 071°02'2 2.3
2017-Mar-26 13:34N 42°20' W 070°60'3 2.7
2017-Mar-26 12:34N 42°22' W 071°03'1 1.0
2017-Mar-26 11:33N 42°23' W 071°03'0 0.0
2017-Mar-26 10:33N 42°23' W 071°03'1 0.6
2017-Mar-26 09:33N 42°23' W 071°03'1 0.6
2017-Mar-26 08:34N 42°23' W 071°03'0 0.2
2017-Mar-26 07:34N 42°23' W 071°03'0 0.2
2017-Mar-26 06:33N 42°23' W 071°03'0 0.0
2017-Mar-26 05:34N 42°23' W 071°03'1 1.3
2017-Mar-26 04:32N 42°24' W 071°01'2 1.6
2017-Mar-26 03:34N 42°23' W 071°03'1 0.8
2017-Mar-26 02:34N 42°23' W 071°04'2 1.7
2017-Mar-26 01:34N 42°22' W 071°02'1 1.4
2017-Mar-26 00:34N 42°21' W 071°01'2 1.9
2017-Mar-25 23:32N 42°22' W 071°03'2 2.1
2017-Mar-25 22:31N 42°24' W 071°01'2 1.4
2017-Mar-25 21:21N 42°23' W 071°03'0 0.0
2017-Mar-25 20:33N 42°23' W 071°03'0 0.0
2017-Mar-25 19:34N 42°23' W 071°03'0 0.0
2017-Mar-25 18:34N 42°23' W 071°03'0 0.0
2017-Mar-25 17:34N 42°23' W 071°03'1 0.8
2017-Mar-25 16:34N 42°23' W 071°03'1 0.8
2017-Mar-25 15:34N 42°23' W 071°03'0 0.0
2017-Mar-25 14:34N 42°23' W 071°03'0 0.0
2017-Mar-25 13:34N 42°23' W 071°03'0 0.0
2017-Mar-25 12:34N 42°23' W 071°03'2 2.5
2017-Mar-25 11:34N 42°21' W 071°01'1 0.7
2017-Mar-25 10:34N 42°21' W 071°02'2 1.8
2017-Mar-25 09:33N 42°23' W 071°03'0 0.0
2017-Mar-25 08:33N 42°23' W 071°03'0 0.0
2017-Mar-25 07:34N 42°23' W 071°03'0 0.0
2017-Mar-25 06:33N 42°23' W 071°03'1 1.3
2017-Mar-25 05:33N 42°21' W 071°02'1 1.0
2017-Mar-25 04:34N 42°22' W 071°03'1 1.2
2017-Mar-25 03:33N 42°23' W 071°04'1 1.0
2017-Mar-25 02:33N 42°23' W 071°03'0 0.0
2017-Mar-25 01:34N 42°23' W 071°03'0 0.0
2017-Mar-25 00:33N 42°23' W 071°03'2 1.7
2017-Mar-24 23:33N 42°24' W 071°01'1 1.3
2017-Mar-24 22:34N 42°23' W 071°02'1 0.8
2017-Mar-24 21:34N 42°22' W 071°03'0 0.4
2017-Mar-24 20:34N 42°23' W 071°03'0 0.0
2017-Mar-24 19:33N 42°23' W 071°03'0 0.0
2017-Mar-24 18:32N 42°23' W 071°03'0 0.0
2017-Mar-24 17:34N 42°23' W 071°03'0 0.0
2017-Mar-24 16:33N 42°23' W 071°03'0 0.0
2017-Mar-24 15:34N 42°23' W 071°03'0 0.5
2017-Mar-24 14:34N 42°23' W 071°02'2 2.3
2017-Mar-24 13:34N 42°21' W 071°01'2 2.3
2017-Mar-24 12:33N 42°23' W 071°03'0 0.2
2017-Mar-24 11:32N 42°23' W 071°03'0 0.0
2017-Mar-24 10:33N 42°23' W 071°03'0 0.0
2017-Mar-24 09:33N 42°23' W 071°03'0 0.0
2017-Mar-24 08:34N 42°23' W 071°03'0 0.0
2017-Mar-24 07:34N 42°23' W 071°03'0 0.0
2017-Mar-24 06:33N 42°23' W 071°03'0 0.0
2017-Mar-24 05:34N 42°23' W 071°03'0 0.0
2017-Mar-24 04:34N 42°23' W 071°03'0 0.0
2017-Mar-24 03:34N 42°23' W 071°03'0 0.0
2017-Mar-24 02:34N 42°23' W 071°03'0 0.0
2017-Mar-24 01:33N 42°23' W 071°03'1 0.9
2017-Mar-24 00:28N 42°23' W 071°04'0 0.1
2017-Mar-23 23:33N 42°23' W 071°04'1 1.4
2017-Mar-23 22:33N 42°22' W 071°03'3 3.1
2017-Mar-23 21:33N 42°20' W 070°60'4 3.5
2017-Mar-23 20:34N 42°23' W 071°03'0 0.0
2017-Mar-23 19:34N 42°23' W 071°03'0 0.0
2017-Mar-23 18:33N 42°23' W 071°03'0 0.0
2017-Mar-23 17:34N 42°23' W 071°03'5 5.1
2017-Mar-23 16:34N 42°21' W 070°56'7 6.5
2017-Mar-23 15:34N 42°25' W 070°49'0 0.4
2017-Mar-23 14:34N 42°25' W 070°49'0 0.2
2017-Mar-23 13:34N 42°25' W 070°49'8 8.0
2017-Mar-23 12:34N 42°20' W 070°58'4 4.4
2017-Mar-23 11:34N 42°23' W 071°03'0 0.0
2017-Mar-23 10:33N 42°23' W 071°03'0 0.0
2017-Mar-23 09:33N 42°23' W 071°03'0 0.0
2017-Mar-23 08:34N 42°23' W 071°03'0 0.3
2017-Mar-23 07:33N 42°23' W 071°02'0 0.3
2017-Mar-23 06:34N 42°23' W 071°03'0 0.1
2017-Mar-23 05:34N 42°23' W 071°03'0 0.0
2017-Mar-23 04:34N 42°23' W 071°03'0 0.0
2017-Mar-23 03:34N 42°23' W 071°03'0 0.0
2017-Mar-23 02:34N 42°23' W 071°03'0 0.0
2017-Mar-23 01:33N 42°23' W 071°03'0 0.0
2017-Mar-23 00:34N 42°23' W 071°03'0 0.0
2017-Mar-22 23:33N 42°23' W 071°03'0 0.0
2017-Mar-22 22:34N 42°23' W 071°03'0 0.0
2017-Mar-22 21:34N 42°23' W 071°03'0 0.0
2017-Mar-22 20:34N 42°23' W 071°03'0 0.0
2017-Mar-22 19:34N 42°23' W 071°03'0 0.0
2017-Mar-22 18:34N 42°23' W 071°03'0 0.0
2017-Mar-22 17:33N 42°23' W 071°03'0 0.0
2017-Mar-22 16:34N 42°23' W 071°03'0 0.0
2017-Mar-22 15:33N 42°23' W 071°03'0 0.0
2017-Mar-22 14:34N 42°23' W 071°03'1 1.3
2017-Mar-22 13:33N 42°23' W 071°01'1 1.2
2017-Mar-22 12:33N 42°23' W 071°03'1 0.7
2017-Mar-22 11:33N 42°23' W 071°03'2 2.0
2017-Mar-22 10:34N 42°24' W 071°01'3 2.8
2017-Mar-22 09:34N 42°21' W 071°02'1 1.3
2017-Mar-22 08:33N 42°22' W 071°03'2 1.9
2017-Mar-22 07:33N 42°24' W 071°01'0 0.0
2017-Mar-22 06:34N 42°24' W 071°01'0 0.0
2017-Mar-22 05:34N 42°24' W 071°01'0 0.0
2017-Mar-22 04:34N 42°24' W 071°01'0 0.2
2017-Mar-22 03:34N 42°23' W 071°01'0 0.4
2017-Mar-22 02:33N 42°23' W 071°02'1 0.8
2017-Mar-22 01:33N 42°23' W 071°03'0 0.0
2017-Mar-22 00:34N 42°23' W 071°03'0 0.0
2017-Mar-21 23:33N 42°23' W 071°03'0 0.0
2017-Mar-21 22:33N 42°23' W 071°03'0 0.0
2017-Mar-21 21:27N 42°23' W 071°03'0 0.0
2017-Mar-21 20:34N 42°23' W 071°03'0 0.0
2017-Mar-21 19:34N 42°23' W 071°03'0 0.0
2017-Mar-21 18:33N 42°23' W 071°03'0 0.0
2017-Mar-21 17:33N 42°23' W 071°03'0 0.0
2017-Mar-21 14:19N 42°23' W 071°03'0 0.0
2017-Mar-21 13:26N 42°23' W 071°03'1 1.6
2017-Mar-21 12:34N 42°24' W 071°01'1 1.4
2017-Mar-21 11:34N 42°23' W 071°03'0 0.3
2017-Mar-21 10:33N 42°23' W 071°03'0 0.5
2017-Mar-21 09:33N 42°22' W 071°03'1 0.7
2017-Mar-21 08:34N 42°23' W 071°03'0 0.0
2017-Mar-21 07:33N 42°23' W 071°03'0 0.0
2017-Mar-21 06:33N 42°23' W 071°03'0 0.0
2017-Mar-21 05:33N 42°23' W 071°03'0 0.0
2017-Mar-21 04:34N 42°23' W 071°03'0 0.0
2017-Mar-21 03:33N 42°23' W 071°03'0 0.0
2017-Mar-21 02:32N 42°23' W 071°03'0 0.0
2017-Mar-21 01:33N 42°23' W 071°03'0 0.0
2017-Mar-21 00:34N 42°23' W 071°03'3 2.5
2017-Mar-20 23:34N 42°21' W 071°01'2 2.2
2017-Mar-20 22:34N 42°20' W 070°58'4 4.1
2017-Mar-20 21:33N 42°23' W 071°03'0 0.0
2017-Mar-20 20:33N 42°23' W 071°03'2 2.5
2017-Mar-20 19:34N 42°21' W 071°01'0 0.3
2017-Mar-20 18:33N 42°21' W 071°02'4 4.3
2017-Mar-20 17:34N 42°20' W 070°56'5 4.7
2017-Mar-20 16:34N 42°15' W 070°57'1 1.0
2017-Mar-20 15:34N 42°16' W 070°56'6 6.2
2017-Mar-20 14:33N 42°21' W 071°01'2 1.8
2017-Mar-20 13:34N 42°22' W 071°03'2 2.3
2017-Mar-20 12:34N 42°24' W 071°01'2 1.5
2017-Mar-20 11:33N 42°23' W 071°03'1 1.5
2017-Mar-20 10:34N 42°24' W 071°01'2 1.7
2017-Mar-20 09:33N 42°23' W 071°03'0 0.0
2017-Mar-20 08:33N 42°23' W 071°03'0 0.0
2017-Mar-20 07:33N 42°23' W 071°03'3 2.7
2017-Mar-20 06:34N 42°21' W 071°01'1 0.5
2017-Mar-20 05:33N 42°21' W 071°01'0 0.2
2017-Mar-20 04:34N 42°21' W 071°02'2 1.8
2017-Mar-20 03:34N 42°22' W 071°03'1 0.6
2017-Mar-20 02:33N 42°23' W 071°03'0 0.2
2017-Mar-20 00:34N 42°23' W 071°02'0 0.0
2017-Mar-19 23:33N 42°23' W 071°02'1 1.1
2017-Mar-19 22:33N 42°24' W 071°01'2 1.8
2017-Mar-19 21:32N 42°23' W 071°03'2 2.5
2017-Mar-19 20:34N 42°21' W 071°01'0 0.5
2017-Mar-19 19:33N 42°21' W 071°01'2 2.3
2017-Mar-19 18:31N 42°23' W 071°03'0 0.0
2017-Mar-19 17:33N 42°23' W 071°03'0 0.0
2017-Mar-19 16:30N 42°23' W 071°03'0 0.0
2017-Mar-19 15:23N 42°23' W 071°03'5 5.8
2017-Mar-19 14:34N 42°20' W 070°57'6 5.9
2017-Mar-19 13:34N 42°14' W 070°58'1 1.2
2017-Mar-19 12:33N 42°15' W 070°57'5 4.7
2017-Mar-19 11:34N 42°20' W 070°56'4 4.2
2017-Mar-19 10:33N 42°21' W 071°02'2 2.3
2017-Mar-19 09:32N 42°23' W 071°03'0 0.0
2017-Mar-19 08:34N 42°23' W 071°03'0 0.0
2017-Mar-19 07:28N 42°23' W 071°03'0 0.0
2017-Mar-19 06:33N 42°23' W 071°03'0 0.0
2017-Mar-19 05:33N 42°23' W 071°03'0 0.0
2017-Mar-19 04:33N 42°23' W 071°03'0 0.0
2017-Mar-19 03:33N 42°23' W 071°03'0 0.0
2017-Mar-19 02:33N 42°23' W 071°03'0 0.0
2017-Mar-19 01:32N 42°23' W 071°03'2 1.7
2017-Mar-19 00:34N 42°24' W 071°01'2 1.3
2017-Mar-18 23:17N 42°23' W 071°03'0 0.5
2017-Mar-18 22:34N 42°23' W 071°02'1 1.3
2017-Mar-18 21:34N 42°24' W 071°01'2 0.2
2017-Mar-18 13:29N 42°23' W 071°03'2 1.8
2017-Mar-18 12:33N 42°24' W 071°01'0 0.0
2017-Mar-18 11:33N 42°24' W 071°01'0 0.0
2017-Mar-18 10:34N 42°24' W 071°01'2 1.6
2017-Mar-18 09:33N 42°23' W 071°03'1 0.9
2017-Mar-18 08:33N 42°23' W 071°04'0 0.2
2017-Mar-18 07:32N 42°23' W 071°04'2 2.2
2017-Mar-18 06:33N 42°21' W 071°02'2 2.1
2017-Mar-18 05:33N 42°20' W 070°60'3 3.2
2017-Mar-18 04:32N 42°23' W 071°03'0 0.0
2017-Mar-18 03:30N 42°23' W 071°03'0 0.0
2017-Mar-18 02:33N 42°23' W 071°03'0 0.0
2017-Mar-18 01:33N 42°23' W 071°03'0 0.0
2017-Mar-18 00:30N 42°23' W 071°03'0 0.0
2017-Mar-17 23:25N 42°23' W 071°03'0 0.0
2017-Mar-17 22:33N 42°23' W 071°03'0 0.0
2017-Mar-17 21:33N 42°23' W 071°03'  
Track history (hours):
 
Tides and Currents Weather Stations Pressure Air Temp Water Temp Dewpoint Dewpoint Depression Visibility Wind Speed Wind Dir Waves Ship Positions

Justice

Owner: Boston Towing & Transportation, Boston, MA. More information available from US FCC via Universal Licensing System and Coast Guard Vessel Documentation Center.

Last reported at 2017-Mar-27 21:33 UTC. Time now 2017-Mar-27 22:22 UTC.
Position N 42°23' W 071°03'.

Length 30 m; draft 5.8 m.

Type: Tug. MMSI: 367513010.

Date/timePositionNaut miles runAvg speedWind from/ knotsBaromVisibWave heightAir tempDewpointWater temp
2017-Mar-27 21:33N 42°23' W 071°03'0 0.0
2017-Mar-27 20:33N 42°23' W 071°03'0 0.0
2017-Mar-27 19:33N 42°23' W 071°03'0 0.0
2017-Mar-27 18:33N 42°23' W 071°03'0 0.0
2017-Mar-27 17:33N 42°23' W 071°03'0 0.0
2017-Mar-27 16:33N 42°23' W 071°03'0 0.0
2017-Mar-27 15:33N 42°23' W 071°03'0 0.0
2017-Mar-27 14:33N 42°23' W 071°03'2 2.5
2017-Mar-27 13:33N 42°21' W 071°01'3 2.7
2017-Mar-27 12:33N 42°23' W 071°02'0 0.0
2017-Mar-27 11:33N 42°23' W 071°02'0 0.4
2017-Mar-27 10:33N 42°23' W 071°03'0 0.0
2017-Mar-27 09:33N 42°23' W 071°03'0 0.0
2017-Mar-27 08:33N 42°23' W 071°03'0 0.0
2017-Mar-27 07:33N 42°23' W 071°03'0 0.0
2017-Mar-27 06:33N 42°23' W 071°03'0 0.0
2017-Mar-27 05:33N 42°23' W 071°03'0 0.0
2017-Mar-27 04:33N 42°23' W 071°03'0 0.0
2017-Mar-27 03:34N 42°23' W 071°03'0 0.0
2017-Mar-27 02:34N 42°23' W 071°03'0 0.1
2017-Mar-27 01:34N 42°23' W 071°03'0 0.1
2017-Mar-27 00:34N 42°23' W 071°03'0 0.0
2017-Mar-26 23:34N 42°23' W 071°03'0 0.0
2017-Mar-26 22:34N 42°23' W 071°03'0 0.0
2017-Mar-26 21:34N 42°23' W 071°03'0 0.0
2017-Mar-26 20:34N 42°23' W 071°03'0 0.0
2017-Mar-26 19:34N 42°23' W 071°03'0 0.0
2017-Mar-26 18:34N 42°23' W 071°03'0 0.0
2017-Mar-26 17:33N 42°23' W 071°03'0 0.0
2017-Mar-26 16:33N 42°23' W 071°03'0 0.0
2017-Mar-26 15:33N 42°23' W 071°03'1 1.3
2017-Mar-26 14:34N 42°22' W 071°02'2 2.3
2017-Mar-26 13:34N 42°20' W 070°60'3 2.7
2017-Mar-26 12:34N 42°22' W 071°03'1 1.0
2017-Mar-26 11:33N 42°23' W 071°03'0 0.0
2017-Mar-26 10:33N 42°23' W 071°03'1 0.6
2017-Mar-26 09:33N 42°23' W 071°03'1 0.6
2017-Mar-26 08:34N 42°23' W 071°03'0 0.2
2017-Mar-26 07:34N 42°23' W 071°03'0 0.2
2017-Mar-26 06:33N 42°23' W 071°03'0 0.0
2017-Mar-26 05:34N 42°23' W 071°03'1 1.3
2017-Mar-26 04:32N 42°24' W 071°01'2 1.6
2017-Mar-26 03:34N 42°23' W 071°03'1 0.8
2017-Mar-26 02:34N 42°23' W 071°04'2 1.7
2017-Mar-26 01:34N 42°22' W 071°02'1 1.4
2017-Mar-26 00:34N 42°21' W 071°01'2 1.9
2017-Mar-25 23:32N 42°22' W 071°03'2 2.1
2017-Mar-25 22:31N 42°24' W 071°01'2 1.4
2017-Mar-25 21:21N 42°23' W 071°03'0 0.0
2017-Mar-25 20:33N 42°23' W 071°03'0 0.0
2017-Mar-25 19:34N 42°23' W 071°03'0 0.0
2017-Mar-25 18:34N 42°23' W 071°03'0 0.0
2017-Mar-25 17:34N 42°23' W 071°03'1 0.8
2017-Mar-25 16:34N 42°23' W 071°03'1 0.8
2017-Mar-25 15:34N 42°23' W 071°03'0 0.0
2017-Mar-25 14:34N 42°23' W 071°03'0 0.0
2017-Mar-25 13:34N 42°23' W 071°03'0 0.0
2017-Mar-25 12:34N 42°23' W 071°03'2 2.5
2017-Mar-25 11:34N 42°21' W 071°01'1 0.7
2017-Mar-25 10:34N 42°21' W 071°02'2 1.8
2017-Mar-25 09:33N 42°23' W 071°03'0 0.0
2017-Mar-25 08:33N 42°23' W 071°03'0 0.0
2017-Mar-25 07:34N 42°23' W 071°03'0 0.0
2017-Mar-25 06:33N 42°23' W 071°03'1 1.3
2017-Mar-25 05:33N 42°21' W 071°02'1 1.0
2017-Mar-25 04:34N 42°22' W 071°03'1 1.2
2017-Mar-25 03:33N 42°23' W 071°04'1 1.0
2017-Mar-25 02:33N 42°23' W 071°03'0 0.0
2017-Mar-25 01:34N 42°23' W 071°03'0 0.0
2017-Mar-25 00:33N 42°23' W 071°03'2 1.7
2017-Mar-24 23:33N 42°24' W 071°01'1 1.3
2017-Mar-24 22:34N 42°23' W 071°02'1 0.8
2017-Mar-24 21:34N 42°22' W 071°03'0 0.4
2017-Mar-24 20:34N 42°23' W 071°03'0 0.0
2017-Mar-24 19:33N 42°23' W 071°03'0 0.0
2017-Mar-24 18:32N 42°23' W 071°03'0 0.0
2017-Mar-24 17:34N 42°23' W 071°03'0 0.0
2017-Mar-24 16:33N 42°23' W 071°03'0 0.0
2017-Mar-24 15:34N 42°23' W 071°03'0 0.5
2017-Mar-24 14:34N 42°23' W 071°02'2 2.3
2017-Mar-24 13:34N 42°21' W 071°01'2 2.3
2017-Mar-24 12:33N 42°23' W 071°03'0 0.2
2017-Mar-24 11:32N 42°23' W 071°03'0 0.0
2017-Mar-24 10:33N 42°23' W 071°03'0 0.0
2017-Mar-24 09:33N 42°23' W 071°03'0 0.0
2017-Mar-24 08:34N 42°23' W 071°03'0 0.0
2017-Mar-24 07:34N 42°23' W 071°03'0 0.0
2017-Mar-24 06:33N 42°23' W 071°03'0 0.0
2017-Mar-24 05:34N 42°23' W 071°03'0 0.0
2017-Mar-24 04:34N 42°23' W 071°03'0 0.0
2017-Mar-24 03:34N 42°23' W 071°03'0 0.0
2017-Mar-24 02:34N 42°23' W 071°03'0 0.0
2017-Mar-24 01:33N 42°23' W 071°03'1 0.9
2017-Mar-24 00:28N 42°23' W 071°04'0 0.1
2017-Mar-23 23:33N 42°23' W 071°04'1 1.4
2017-Mar-23 22:33N 42°22' W 071°03'3 3.1
2017-Mar-23 21:33N 42°20' W 070°60'4 3.5
2017-Mar-23 20:34N 42°23' W 071°03'0 0.0
2017-Mar-23 19:34N 42°23' W 071°03'0 0.0
2017-Mar-23 18:33N 42°23' W 071°03'0 0.0
2017-Mar-23 17:34N 42°23' W 071°03'5 5.1
2017-Mar-23 16:34N 42°21' W 070°56'7 6.5
2017-Mar-23 15:34N 42°25' W 070°49'0 0.4
2017-Mar-23 14:34N 42°25' W 070°49'0 0.2
2017-Mar-23 13:34N 42°25' W 070°49'8 8.0
2017-Mar-23 12:34N 42°20' W 070°58'4 4.4
2017-Mar-23 11:34N 42°23' W 071°03'0 0.0
2017-Mar-23 10:33N 42°23' W 071°03'0 0.0
2017-Mar-23 09:33N 42°23' W 071°03'0 0.0
2017-Mar-23 08:34N 42°23' W 071°03'0 0.3
2017-Mar-23 07:33N 42°23' W 071°02'0 0.3
2017-Mar-23 06:34N 42°23' W 071°03'0 0.1
2017-Mar-23 05:34N 42°23' W 071°03'0 0.0
2017-Mar-23 04:34N 42°23' W 071°03'0 0.0
2017-Mar-23 03:34N 42°23' W 071°03'0 0.0
2017-Mar-23 02:34N 42°23' W 071°03'0 0.0
2017-Mar-23 01:33N 42°23' W 071°03'0 0.0
2017-Mar-23 00:34N 42°23' W 071°03'0 0.0
2017-Mar-22 23:33N 42°23' W 071°03'0 0.0
2017-Mar-22 22:34N 42°23' W 071°03'0 0.0
2017-Mar-22 21:34N 42°23' W 071°03'0 0.0
2017-Mar-22 20:34N 42°23' W 071°03'0 0.0
2017-Mar-22 19:34N 42°23' W 071°03'0 0.0
2017-Mar-22 18:34N 42°23' W 071°03'0 0.0
2017-Mar-22 17:33N 42°23' W 071°03'0 0.0
2017-Mar-22 16:34N 42°23' W 071°03'0 0.0
2017-Mar-22 15:33N 42°23' W 071°03'0 0.0
2017-Mar-22 14:34N 42°23' W 071°03'1 1.3
2017-Mar-22 13:33N 42°23' W 071°01'1 1.2
2017-Mar-22 12:33N 42°23' W 071°03'1 0.7
2017-Mar-22 11:33N 42°23' W 071°03'2 2.0
2017-Mar-22 10:34N 42°24' W 071°01'3 2.8
2017-Mar-22 09:34N 42°21' W 071°02'1 1.3
2017-Mar-22 08:33N 42°22' W 071°03'2 1.9
2017-Mar-22 07:33N 42°24' W 071°01'0 0.0
2017-Mar-22 06:34N 42°24' W 071°01'0 0.0
2017-Mar-22 05:34N 42°24' W 071°01'0 0.0
2017-Mar-22 04:34N 42°24' W 071°01'0 0.2
2017-Mar-22 03:34N 42°23' W 071°01'0 0.4
2017-Mar-22 02:33N 42°23' W 071°02'1 0.8
2017-Mar-22 01:33N 42°23' W 071°03'0 0.0
2017-Mar-22 00:34N 42°23' W 071°03'0 0.0
2017-Mar-21 23:33N 42°23' W 071°03'0 0.0
2017-Mar-21 22:33N 42°23' W 071°03'0 0.0
2017-Mar-21 21:27N 42°23' W 071°03'0 0.0
2017-Mar-21 20:34N 42°23' W 071°03'0 0.0
2017-Mar-21 19:34N 42°23' W 071°03'0 0.0
2017-Mar-21 18:33N 42°23' W 071°03'0 0.0
2017-Mar-21 17:33N 42°23' W 071°03'0 0.0
2017-Mar-21 14:19N 42°23' W 071°03'0 0.0
2017-Mar-21 13:26N 42°23' W 071°03'1 1.6
2017-Mar-21 12:34N 42°24' W 071°01'1 1.4
2017-Mar-21 11:34N 42°23' W 071°03'0 0.3
2017-Mar-21 10:33N 42°23' W 071°03'0 0.5
2017-Mar-21 09:33N 42°22' W 071°03'1 0.7
2017-Mar-21 08:34N 42°23' W 071°03'0 0.0
2017-Mar-21 07:33N 42°23' W 071°03'0 0.0
2017-Mar-21 06:33N 42°23' W 071°03'0 0.0
2017-Mar-21 05:33N 42°23' W 071°03'0 0.0
2017-Mar-21 04:34N 42°23' W 071°03'0 0.0
2017-Mar-21 03:33N 42°23' W 071°03'0 0.0
2017-Mar-21 02:32N 42°23' W 071°03'0 0.0
2017-Mar-21 01:33N 42°23' W 071°03'0 0.0
2017-Mar-21 00:34N 42°23' W 071°03'3 2.5
2017-Mar-20 23:34N 42°21' W 071°01'2 2.2
2017-Mar-20 22:34N 42°20' W 070°58'4 4.1
2017-Mar-20 21:33N 42°23' W 071°03'0 0.0
2017-Mar-20 20:33N 42°23' W 071°03'2 2.5
2017-Mar-20 19:34N 42°21' W 071°01'0 0.3
2017-Mar-20 18:33N 42°21' W 071°02'4 4.3
2017-Mar-20 17:34N 42°20' W 070°56'5 4.7
2017-Mar-20 16:34N 42°15' W 070°57'1 1.0
2017-Mar-20 15:34N 42°16' W 070°56'6 6.2
2017-Mar-20 14:33N 42°21' W 071°01'2 1.8
2017-Mar-20 13:34N 42°22' W 071°03'2 2.3
2017-Mar-20 12:34N 42°24' W 071°01'2 1.5
2017-Mar-20 11:33N 42°23' W 071°03'1 1.5
2017-Mar-20 10:34N 42°24' W 071°01'2 1.7
2017-Mar-20 09:33N 42°23' W 071°03'0 0.0
2017-Mar-20 08:33N 42°23' W 071°03'0 0.0
2017-Mar-20 07:33N 42°23' W 071°03'3 2.7
2017-Mar-20 06:34N 42°21' W 071°01'1 0.5
2017-Mar-20 05:33N 42°21' W 071°01'0 0.2
2017-Mar-20 04:34N 42°21' W 071°02'2 1.8
2017-Mar-20 03:34N 42°22' W 071°03'1 0.6
2017-Mar-20 02:33N 42°23' W 071°03'0 0.2
2017-Mar-20 00:34N 42°23' W 071°02'0 0.0
2017-Mar-19 23:33N 42°23' W 071°02'1 1.1
2017-Mar-19 22:33N 42°24' W 071°01'2 1.8
2017-Mar-19 21:32N 42°23' W 071°03'2 2.5
2017-Mar-19 20:34N 42°21' W 071°01'0 0.5
2017-Mar-19 19:33N 42°21' W 071°01'2 2.3
2017-Mar-19 18:31N 42°23' W 071°03'0 0.0
2017-Mar-19 17:33N 42°23' W 071°03'0 0.0
2017-Mar-19 16:30N 42°23' W 071°03'0 0.0
2017-Mar-19 15:23N 42°23' W 071°03'5 5.8
2017-Mar-19 14:34N 42°20' W 070°57'6 5.9
2017-Mar-19 13:34N 42°14' W 070°58'1 1.2
2017-Mar-19 12:33N 42°15' W 070°57'5 4.7
2017-Mar-19 11:34N 42°20' W 070°56'4 4.2
2017-Mar-19 10:33N 42°21' W 071°02'2 2.3
2017-Mar-19 09:32N 42°23' W 071°03'0 0.0
2017-Mar-19 08:34N 42°23' W 071°03'0 0.0
2017-Mar-19 07:28N 42°23' W 071°03'0 0.0
2017-Mar-19 06:33N 42°23' W 071°03'0 0.0
2017-Mar-19 05:33N 42°23' W 071°03'0 0.0
2017-Mar-19 04:33N 42°23' W 071°03'0 0.0
2017-Mar-19 03:33N 42°23' W 071°03'0 0.0
2017-Mar-19 02:33N 42°23' W 071°03'0 0.0
2017-Mar-19 01:32N 42°23' W 071°03'2 1.7
2017-Mar-19 00:34N 42°24' W 071°01'2 1.3
2017-Mar-18 23:17N 42°23' W 071°03'0 0.5
2017-Mar-18 22:34N 42°23' W 071°02'1 1.3
2017-Mar-18 21:34N 42°24' W 071°01'2 0.2
2017-Mar-18 13:29N 42°23' W 071°03'2 1.8
2017-Mar-18 12:33N 42°24' W 071°01'0 0.0
2017-Mar-18 11:33N 42°24' W 071°01'0 0.0
2017-Mar-18 10:34N 42°24' W 071°01'2 1.6
2017-Mar-18 09:33N 42°23' W 071°03'1 0.9
2017-Mar-18 08:33N 42°23' W 071°04'0 0.2
2017-Mar-18 07:32N 42°23' W 071°04'2 2.2
2017-Mar-18 06:33N 42°21' W 071°02'2 2.1
2017-Mar-18 05:33N 42°20' W 070°60'3 3.2
2017-Mar-18 04:32N 42°23' W 071°03'0 0.0
2017-Mar-18 03:30N 42°23' W 071°03'0 0.0
2017-Mar-18 02:33N 42°23' W 071°03'0 0.0
2017-Mar-18 01:33N 42°23' W 071°03'0 0.0
2017-Mar-18 00:30N 42°23' W 071°03'0 0.0
2017-Mar-17 23:25N 42°23' W 071°03'0 0.0
2017-Mar-17 22:33N 42°23' W 071°03'0 0.0
2017-Mar-17 21:33N 42°23' W 071°03'  

Dump ship's entire track history